Time;durP1;ratioP1;P1;durP2;ratioP2;P2;SDS_P1;SDS_P2;PMS_P1;PMS_P2;Temp;Humidity;BMP_temperature;BMP_pressure;BME280_temperature;BME280_humidity;BME280_pressure;Samples;Min_cycle;Max_cycle;Signal;HPM_P1;HPM_P2
2024/03/13 00:01:57;;;;;;;46.80;22.00;;;;;;;8.49;40.78;100482.73;108323;1251;70581;-66
2024/03/13 00:04:34;;;;;;;43.60;21.00;;;;;;;8.62;40.69;100480.70;108241;1253;71031;-67
2024/03/13 00:07:01;;;;;;;47.80;23.00;;;;;;;8.60;40.58;100483.55;108328;1251;59746;-67
2024/03/13 00:09:30;;;;;;;49.80;22.20;;;;;;;8.72;40.30;100484.83;108416;1251;61373;-67
2024/03/13 00:11:57;;;;;;;55.60;24.60;;;;;;;8.40;40.64;100488.70;108351;1251;73068;-66
2024/03/13 00:14:27;;;;;;;43.20;20.60;;;;;;;8.38;40.90;100487.73;108399;1251;68794;-67
2024/03/13 00:16:54;;;;;;;43.60;23.30;;;;;;;8.06;41.50;100490.45;108343;1253;72935;-66
2024/03/13 00:19:22;;;;;;;52.10;22.00;;;;;;;8.37;41.16;100481.95;108399;1251;59646;-66
2024/03/13 00:21:50;;;;;;;53.60;22.00;;;;;;;8.02;42.06;100479.36;108303;1251;60850;-67
2024/03/13 00:24:18;;;;;;;53.00;23.80;;;;;;;8.12;42.06;100480.02;108288;1250;73326;-67
2024/03/13 00:26:50;;;;;;;53.30;22.90;;;;;;;8.08;41.99;100485.17;108319;1251;68953;-66
2024/03/13 00:29:17;;;;;;;47.20;23.30;;;;;;;7.85;42.18;100485.83;108395;1250;72944;-67
2024/03/13 00:31:45;;;;;;;50.30;22.80;;;;;;;8.13;41.65;100487.17;108360;1251;59709;-67
2024/03/13 00:34:13;;;;;;;47.80;21.50;;;;;;;7.98;41.82;100491.86;108315;1251;59619;-67
2024/03/13 00:36:40;;;;;;;42.00;20.60;;;;;;;8.32;41.20;100493.06;108340;1251;71798;-67
2024/03/13 00:39:08;;;;;;;45.20;19.90;;;;;;;8.39;40.71;100491.70;108340;1256;69134;-66
2024/03/13 00:41:36;;;;;;;40.60;19.70;;;;;;;8.47;40.59;100486.99;108371;1253;72651;-67
2024/03/13 00:44:05;;;;;;;43.60;21.50;;;;;;;8.62;40.53;100490.50;108154;1251;60864;-67
2024/03/13 00:46:33;;;;;;;43.40;20.20;;;;;;;8.45;41.16;100492.61;108306;1251;59052;-66
2024/03/13 00:49:02;;;;;;;36.70;17.80;;;;;;;8.41;41.76;100492.37;108250;1251;73336;-66
2024/03/13 00:51:31;;;;;;;41.90;18.80;;;;;;;8.63;41.73;100486.98;108312;1251;70065;-66
2024/03/13 00:54:01;;;;;;;40.60;19.80;;;;;;;8.73;42.07;100486.56;108326;1256;72674;-66
2024/03/13 00:56:29;;;;;;;52.40;20.80;;;;;;;8.97;41.84;100482.14;108309;1253;60875;-66
2024/03/13 00:58:57;;;;;;;40.20;17.90;;;;;;;8.91;42.27;100482.11;108326;1251;59724;-67
2024/03/13 01:01:25;;;;;;;40.20;20.10;;;;;;;8.87;42.41;100472.91;108345;1254;71720;-67
2024/03/13 01:03:59;;;;;;;43.10;18.50;;;;;;;8.92;42.64;100466.14;108334;1251;69491;-67
2024/03/13 01:06:31;;;;;;;42.40;19.50;;;;;;;8.93;42.79;100455.43;108217;1251;71064;-68
2024/03/13 01:08:58;;;;;;;108.50;32.80;;;;;;;8.66;43.51;100453.64;108283;1256;59694;-67
2024/03/13 01:11:28;;;;;;;42.80;20.30;;;;;;;8.72;43.69;100447.03;108197;1251;60053;-67
2024/03/13 01:13:55;;;;;;;52.60;19.90;;;;;;;8.81;43.48;100443.47;108287;1251;71205;-68
2024/03/13 01:16:23;;;;;;;70.60;24.40;;;;;;;8.66;43.61;100439.98;108195;1251;68816;-67
2024/03/13 01:18:51;;;;;;;34.00;17.80;;;;;;;8.84;43.31;100437.45;108188;1251;72699;-67
2024/03/13 01:21:21;;;;;;;40.30;18.20;;;;;;;8.86;42.80;100435.30;108288;1251;61118;-67
2024/03/13 01:23:48;;;;;;;42.50;18.00;;;;;;;8.80;42.74;100430.02;108265;1251;60399;-67
2024/03/13 01:26:16;;;;;;;37.80;17.90;;;;;;;8.58;42.91;100431.77;108298;1251;72843;-67
2024/03/13 01:28:43;;;;;;;40.50;18.70;;;;;;;8.54;42.71;100426.45;108319;1251;71627;-66
2024/03/13 01:31:11;;;;;;;36.50;16.00;;;;;;;8.69;42.41;100434.16;108325;1251;73259;-66
2024/03/13 01:33:38;;;;;;;30.80;15.80;;;;;;;8.89;41.95;100438.20;108351;1251;60453;-67
2024/03/13 01:36:06;;;;;;;30.30;15.00;;;;;;;9.01;41.56;100437.90;108346;1250;61114;-66
2024/03/13 01:38:34;;;;;;;36.30;16.20;;;;;;;9.04;41.50;100434.48;108429;1254;71686;-67
2024/03/13 01:55:06;;;;;;;41.20;17.90;;;;;;;9.10;39.52;100447.48;108402;1251;69898;-66
2024/03/13 01:57:45;;;;;;;40.10;18.00;;;;;;;9.15;38.62;100448.75;108413;1251;72747;-68
2024/03/13 02:02:58;;;;;;;33.20;15.60;;;;;;;9.27;38.76;100432.83;108287;1251;60354;-67
2024/03/13 02:05:26;;;;;;;32.80;16.00;;;;;;;9.32;38.87;100425.51;108390;1251;73904;-67
2024/03/13 02:07:53;;;;;;;36.10;17.80;;;;;;;9.29;38.70;100419.63;108386;1250;69635;-67
2024/03/13 02:10:21;;;;;;;44.70;18.80;;;;;;;9.27;38.35;100423.54;108409;1251;73204;-67
2024/03/13 02:13:03;;;;;;;40.70;19.70;;;;;;;9.12;38.30;100425.52;108265;1251;60347;-67
2024/03/13 02:15:31;;;;;;;43.00;19.40;;;;;;;9.33;38.08;100425.14;108423;1251;60245;-67
2024/03/13 02:18:00;;;;;;;45.10;20.20;;;;;;;9.21;38.15;100427.41;108333;1250;72770;-68
2024/03/13 02:20:33;;;;;;;37.20;20.10;;;;;;;9.24;38.11;100428.88;108339;1255;69176;-68
2024/03/13 02:23:04;;;;;;;43.40;20.30;;;;;;;9.31;37.88;100429.04;108351;1250;72700;-67
2024/03/13 02:25:32;;;;;;;42.00;19.80;;;;;;;9.35;37.78;100432.98;108366;1251;60874;-67
2024/03/13 02:28:00;;;;;;;47.10;22.80;;;;;;;9.13;38.04;100432.85;108340;1251;60305;-67
2024/03/13 02:30:27;;;;;;;41.50;20.30;;;;;;;9.01;38.18;100432.83;108458;1251;72232;-68
2024/03/13 02:32:55;;;;;;;51.30;21.60;;;;;;;9.09;37.88;100436.48;108375;1251;68992;-67
2024/03/13 02:35:22;;;;;;;54.70;23.40;;;;;;;8.78;38.14;100434.96;108202;1251;72693;-67
2024/03/13 02:37:50;;;;;;;46.70;21.00;;;;;;;8.64;38.33;100433.21;108209;1251;62857;-68
2024/03/13 02:40:17;;;;;;;53.70;20.80;;;;;;;8.53;38.57;100435.56;108191;1251;60326;-68
2024/03/13 02:42:46;;;;;;;48.60;20.70;;;;;;;8.52;38.47;100441.89;108272;1254;73866;-67
2024/03/13 02:45:14;;;;;;;50.40;20.30;;;;;;;8.61;38.25;100438.54;108258;1250;68917;-68
2024/03/13 02:47:41;;;;;;;46.80;20.60;;;;;;;8.79;38.16;100440.90;108178;1251;72678;-68
2024/03/13 02:50:11;;;;;;;38.00;18.90;;;;;;;8.68;38.39;100443.46;108205;1251;60236;-68
2024/03/13 02:52:39;;;;;;;36.30;16.60;;;;;;;8.76;38.30;100445.16;108168;1251;60364;-67
2024/03/13 02:55:07;;;;;;;36.00;18.10;;;;;;;8.82;38.14;100447.84;108276;1251;71610;-67
2024/03/13 02:57:35;;;;;;;35.70;17.60;;;;;;;8.93;37.88;100452.30;108156;1251;71030;-67
2024/03/13 03:00:06;;;;;;;37.10;17.80;;;;;;;8.97;37.90;100458.30;108181;1251;72473;-67
2024/03/13 03:02:34;;;;;;;44.70;19.30;;;;;;;8.57;39.16;100455.61;108197;1251;60354;-67
2024/03/13 03:57:35;;;;;;;41.70;21.60;;;;;;;8.42;44.75;100483.76;104861;1291;600481;-68
2024/03/13 04:00:05;;;;;;;49.10;23.90;;;;;;;8.44;45.02;100485.46;107233;1265;61333;-67
2024/03/13 04:02:33;;;;;;;49.00;23.90;;;;;;;8.17;45.77;100488.13;107100;1267;59168;-67
2024/03/13 04:05:01;;;;;;;48.80;24.50;;;;;;;8.13;45.97;100485.61;107154;1267;72665;-68
2024/03/13 04:07:28;;;;;;;53.80;25.00;;;;;;;8.04;46.02;100491.38;107214;1267;70124;-67
2024/03/13 04:09:56;;;;;;;51.90;25.60;;;;;;;8.00;46.67;100494.10;107203;1267;71387;-67
2024/03/13 04:12:24;;;;;;;51.10;26.60;;;;;;;7.73;47.06;100492.35;107162;1265;191580;-66
2024/03/13 04:14:51;;;;;;;57.40;27.30;;;;;;;7.64;47.48;100490.77;107354;1263;59262;-65
2024/03/13 04:17:20;;;;;;;60.70;28.60;;;;;;;7.63;47.74;100486.08;107323;1269;71235;-64
2024/03/13 04:19:48;;;;;;;65.00;29.90;;;;;;;7.64;47.77;100486.06;107343;1263;69975;-67
2024/03/13 04:22:16;;;;;;;55.10;29.10;;;;;;;7.29;48.76;100489.85;107372;1263;71459;-66
2024/03/13 04:24:44;;;;;;;53.40;24.80;;;;;;;7.07;49.30;100493.20;107389;1264;60942;-66
2024/03/13 04:27:13;;;;;;;65.40;30.10;;;;;;;7.03;49.99;100486.98;107375;1263;59033;-67
2024/03/13 04:29:41;;;;;;;56.70;27.30;;;;;;;6.79;50.53;100488.58;107305;1263;71769;-67
2024/03/13 04:32:18;;;;;;;72.00;31.70;;;;;;;6.86;50.77;100487.09;107380;1268;69065;-67
2024/03/13 04:34:46;;;;;;;63.50;31.30;;;;;;;6.81;51.02;100485.42;107871;1254;72705;-67
2024/03/13 04:37:15;;;;;;;73.40;32.30;;;;;;;6.87;51.29;100480.26;107855;1255;60148;-66
2024/03/13 04:39:43;;;;;;;65.80;33.80;;;;;;;6.89;51.05;100480.76;107915;1254;60033;-67
2024/03/13 04:42:10;;;;;;;75.10;33.20;;;;;;;6.72;51.73;100487.15;107809;1254;71030;-67
2024/03/13 04:44:38;;;;;;;72.00;33.40;;;;;;;6.74;51.75;100486.75;107983;1257;68707;-67
2024/03/13 04:47:07;;;;;;;70.30;34.60;;;;;;;6.95;51.38;100481.35;108065;1253;71277;-67
2024/03/13 04:49:36;;;;;;;68.90;34.40;;;;;;;6.95;51.44;100483.45;108010;1256;59645;-67
2024/03/13 04:52:04;;;;;;;73.70;34.00;;;;;;;7.03;51.31;100479.14;107925;1254;60481;-67
2024/03/13 04:54:32;;;;;;;72.20;34.80;;;;;;;6.89;51.58;100483.55;107971;1260;72225;-67
2024/03/13 04:57:00;;;;;;;82.40;35.30;;;;;;;6.74;52.19;100478.89;107960;1254;72646;-68
2024/03/13 04:59:27;;;;;;;73.50;34.70;;;;;;;6.59;52.47;100488.04;107978;1256;71322;-67
2024/03/13 05:01:55;;;;;;;76.40;35.00;;;;;;;6.62;52.67;100482.39;107930;1254;60175;-67
2024/03/13 05:04:23;;;;;;;84.50;36.70;;;;;;;6.93;51.96;100477.90;107922;1254;60293;-67
2024/03/13 05:06:54;;;;;;;66.70;33.30;;;;;;;6.93;51.95;100479.30;107909;1260;71832;-67
2024/03/13 05:09:22;;;;;;;71.90;32.90;;;;;;;6.99;51.58;100484.95;107891;1254;70125;-67
2024/03/13 05:11:50;;;;;;;106.60;47.90;;;;;;;6.89;51.93;100479.54;107917;1254;72680;-67
2024/03/13 05:14:18;;;;;;;82.40;36.70;;;;;;;7.07;51.58;100481.70;107910;1257;60846;-67
2024/03/13 05:16:45;;;;;;;98.90;42.30;;;;;;;6.88;51.85;100480.59;107871;1254;60030;-67
2024/03/13 05:19:13;;;;;;;134.30;50.00;;;;;;;6.94;51.95;100480.86;107937;1254;71800;-67
2024/03/13 05:21:40;;;;;;;75.50;34.10;;;;;;;7.17;51.39;100481.52;107936;1254;70151;-67
2024/03/13 05:24:08;;;;;;;76.20;34.80;;;;;;;7.28;50.98;100482.89;107911;1257;71204;-67
2024/03/13 05:26:37;;;;;;;144.50;45.60;;;;;;;7.08;51.05;100483.05;107901;1254;60890;-67
2024/03/13 05:29:07;;;;;;;74.10;35.10;;;;;;;6.76;52.13;100487.41;107943;1254;59410;-67
2024/03/13 05:31:35;;;;;;;116.70;42.00;;;;;;;6.67;52.32;100485.29;107912;1263;71836;-67
2024/03/13 05:34:04;;;;;;;75.00;32.50;;;;;;;6.73;52.39;100481.70;107892;1261;69847;-67
2024/03/13 05:36:32;;;;;;;199.80;53.60;;;;;;;6.85;51.99;100487.28;107798;1262;71690;-67
2024/03/13 05:39:00;;;;;;;353.10;75.70;;;;;;;7.05;51.79;100483.46;107801;1257;59639;-66
2024/03/13 05:41:27;;;;;;;91.10;36.40;;;;;;;6.89;52.30;100485.99;108123;1254;59633;-67
2024/03/13 05:43:55;;;;;;;109.60;40.10;;;;;;;6.83;52.45;100486.27;108093;1255;72985;-67
2024/03/13 05:46:22;;;;;;;67.30;28.90;;;;;;;6.74;52.67;100486.59;108069;1254;70776;-66
2024/03/13 05:48:50;;;;;;;80.20;34.90;;;;;;;6.76;52.62;100484.64;108125;1253;71074;-66
2024/03/13 05:51:18;;;;;;;73.60;31.30;;;;;;;6.88;52.33;100486.89;108071;1254;60367;-67
2024/03/13 05:53:45;;;;;;;72.40;33.50;;;;;;;6.88;52.34;100489.67;108069;1254;59537;-66
2024/03/13 05:56:13;;;;;;;66.20;29.80;;;;;;;6.63;52.66;100492.66;107959;1254;71890;-67
2024/03/13 05:58:43;;;;;;;79.30;32.30;;;;;;;6.60;52.93;100490.11;108055;1259;68847;-67
2024/03/13 06:01:11;;;;;;;;;;;;;;;6.74;52.43;100489.73;108061;1254;72854;-67
2024/03/13 06:03:39;;;;;;;89.40;33.20;;;;;;;6.79;52.51;100491.55;108037;1254;63057;-67
2024/03/13 06:06:06;;;;;;;71.90;31.50;;;;;;;6.84;52.63;100485.21;108076;1253;60166;-66
2024/03/13 06:08:34;;;;;;;71.60;30.20;;;;;;;6.95;52.21;100483.98;108043;1252;73014;-66
2024/03/13 06:11:05;;;;;;;76.00;32.90;;;;;;;7.00;52.02;100484.06;108090;1254;70835;-67
2024/03/13 06:13:32;;;;;;;74.00;33.30;;;;;;;7.29;51.34;100476.41;108117;1254;71356;-67
2024/03/13 06:16:00;;;;;;;66.20;31.50;;;;;;;7.43;51.15;100478.26;108118;1254;60955;-66
2024/03/13 06:18:28;;;;;;;97.40;37.10;;;;;;;7.25;51.39;100480.16;108154;1253;59941;-67
2024/03/13 06:20:55;;;;;;;71.00;32.30;;;;;;;7.47;51.06;100479.74;108053;1254;75418;-67
2024/03/13 06:23:26;;;;;;;80.70;33.30;;;;;;;7.20;51.28;100483.73;108089;1254;70968;-67
2024/03/13 06:25:57;;;;;;;74.10;30.30;;;;;;;7.47;51.11;100486.56;108043;1254;72661;-67
2024/03/13 06:31:10;;;;;;;70.60;28.10;;;;;;;7.39;50.85;100493.70;108073;1254;59055;-67
2024/03/13 06:33:38;;;;;;;58.70;29.10;;;;;;;7.22;51.33;100494.34;108115;1258;73286;-67
2024/03/13 06:36:05;;;;;;;59.20;27.30;;;;;;;7.39;50.99;100494.55;108078;1253;68572;-67
2024/03/13 06:38:33;;;;;;;70.00;28.10;;;;;;;7.28;51.34;100495.11;107986;1257;71425;-67
2024/03/13 06:41:00;;;;;;;62.50;26.50;;;;;;;7.47;50.90;100493.21;107951;1254;63010;-67
2024/03/13 06:43:28;;;;;;;69.30;30.80;;;;;;;7.44;51.02;100500.25;107990;1254;62314;-68
2024/03/13 06:45:56;;;;;;;72.70;31.80;;;;;;;7.41;50.85;100501.34;108019;1259;73127;-68
2024/03/13 06:48:26;;;;;;;62.80;27.90;;;;;;;7.61;50.64;100491.00;108047;1254;72621;-67
2024/03/13 06:50:54;;;;;;;61.90;28.40;;;;;;;7.72;50.11;100486.78;107975;1253;72585;-67
2024/03/13 06:53:21;;;;;;;62.10;27.90;;;;;;;7.84;49.83;100484.30;107987;1259;63225;-67
2024/03/13 06:55:49;;;;;;;65.30;29.60;;;;;;;7.75;50.04;100486.36;107982;1254;59704;-67
2024/03/13 06:58:17;;;;;;;77.90;35.90;;;;;;;7.92;49.74;100481.67;108006;1254;73763;-68
2024/03/13 07:00:44;;;;;;;58.00;27.50;;;;;;;8.07;49.30;100478.90;108035;1254;70372;-67
2024/03/13 07:03:12;;;;;;;64.30;30.30;;;;;;;8.10;49.22;100478.14;107742;1254;72806;-67
2024/03/13 07:05:40;;;;;;;60.30;29.20;;;;;;;8.25;48.84;100471.70;108001;1254;61462;-67
2024/03/13 07:08:08;;;;;;;59.80;27.50;;;;;;;8.46;48.60;100467.23;108000;1254;59517;-67
2024/03/13 07:10:36;;;;;;;57.80;26.60;;;;;;;8.67;48.06;100463.27;108040;1254;72676;-66
2024/03/13 07:13:06;;;;;;;54.50;26.80;;;;;;;8.82;47.98;100454.83;108026;1254;72527;-68
2024/03/13 07:15:34;;;;;;;56.00;28.20;;;;;;;8.82;47.88;100466.21;107971;1257;71489;-68
2024/03/13 07:18:03;;;;;;;51.10;26.10;;;;;;;8.87;47.71;100465.41;108059;1254;59788;-67
2024/03/13 07:20:31;;;;;;;58.30;24.60;;;;;;;8.95;47.49;100466.93;108089;1253;60355;-67
2024/03/13 07:22:59;;;;;;;48.60;24.30;;;;;;;8.78;47.69;100464.02;108128;1255;73494;-67
2024/03/13 07:25:27;;;;;;;45.60;21.10;;;;;;;8.70;47.69;100467.38;108066;1254;70450;-67
2024/03/13 07:27:56;;;;;;;59.50;24.90;;;;;;;8.64;47.91;100468.58;108024;1254;74626;-68
2024/03/13 07:30:26;;;;;;;45.90;22.00;;;;;;;8.82;47.41;100456.06;108062;1259;59542;-67
2024/03/13 07:32:55;;;;;;;43.00;21.20;;;;;;;8.99;47.17;100456.52;108107;1254;60376;-67
2024/03/13 07:35:24;;;;;;;51.60;23.20;;;;;;;9.21;46.65;100464.36;108086;1252;72077;-67
2024/03/13 07:37:52;;;;;;;43.90;21.50;;;;;;;9.31;46.78;100462.69;107981;1254;71184;-67
2024/03/13 07:40:20;;;;;;;45.30;21.60;;;;;;;9.49;46.33;100458.52;108028;1255;74957;-68
2024/03/13 07:42:48;;;;;;;51.40;24.10;;;;;;;9.68;45.89;100458.38;108103;1259;59694;-68
2024/03/13 07:45:19;;;;;;;47.40;25.30;;;;;;;9.84;45.62;100454.91;108144;1254;60552;-68
2024/03/13 07:47:46;;;;;;;44.10;21.60;;;;;;;10.09;45.20;100459.27;108088;1252;71868;-67
2024/03/13 07:50:14;;;;;;;42.10;20.00;;;;;;;10.22;44.47;100459.77;108033;1254;69303;-68
2024/03/13 07:52:41;;;;;;;49.30;22.80;;;;;;;10.39;43.70;100463.50;108023;1255;71794;-67
2024/03/13 07:55:09;;;;;;;41.70;18.90;;;;;;;10.31;44.04;100461.29;108029;1254;60669;-68
2024/03/13 07:57:37;;;;;;;41.60;18.60;;;;;;;10.19;43.48;100466.70;108077;1254;61331;-67
2024/03/13 08:00:05;;;;;;;40.30;20.10;;;;;;;10.23;43.24;100470.63;108036;1252;71900;-67
2024/03/13 08:02:38;;;;;;;39.20;18.80;;;;;;;10.10;43.52;100469.79;108075;1255;70361;-68
2024/03/13 08:05:06;;;;;;;50.30;21.90;;;;;;;9.95;43.60;100467.94;108114;1254;70897;-67
2024/03/13 08:07:34;;;;;;;44.40;20.20;;;;;;;10.24;43.97;100461.11;108076;1254;60434;-67
2024/03/13 08:10:21;;;;;;;40.40;19.90;;;;;;;10.67;43.22;100459.11;108039;1254;60398;-67
2024/03/13 08:13:06;;;;;;;32.10;16.40;;;;;;;10.87;41.89;100456.02;108034;1253;72742;-69
2024/03/13 08:15:51;;;;;;;36.40;18.70;;;;;;;11.08;41.16;100452.48;108072;1254;72474;-68
2024/03/13 08:18:38;;;;;;;37.70;17.50;;;;;;;11.51;39.77;100456.59;108027;1257;74859;-68
2024/03/13 08:21:24;;;;;;;34.50;17.20;;;;;;;11.51;39.73;100452.20;108114;1254;61858;-68
2024/03/13 08:24:09;;;;;;;36.20;18.90;;;;;;;11.59;38.93;100446.84;108033;1254;60144;-68
2024/03/13 08:26:54;;;;;;;38.70;18.40;;;;;;;11.80;39.01;100451.54;108068;1259;73095;-68
2024/03/13 08:29:39;;;;;;;38.20;17.60;;;;;;;11.96;38.82;100458.89;108115;1253;68913;-68
2024/03/13 08:32:25;;;;;;;36.70;17.60;;;;;;;11.87;38.30;100463.05;108037;1258;72028;-68
2024/03/13 08:35:10;;;;;;;34.00;17.40;;;;;;;11.88;37.56;100465.31;108078;1255;60914;-68
2024/03/13 08:38:01;;;;;;;34.50;17.60;;;;;;;11.72;37.33;100466.42;107966;1253;60547;-68
2024/03/13 08:40:46;;;;;;;34.50;17.60;;;;;;;11.50;38.00;100467.00;107947;1258;73644;-67
2024/03/13 08:43:31;;;;;;;37.80;19.20;;;;;;;11.97;37.37;100467.30;108015;1254;69589;-68
2024/03/13 08:46:17;;;;;;;35.30;18.10;;;;;;;12.11;36.43;100470.80;108109;1254;72903;-68
2024/03/13 08:49:05;;;;;;;36.40;17.70;;;;;;;11.94;35.99;100464.57;108053;1254;61821;-68
2024/03/13 08:51:54;;;;;;;26.60;13.40;;;;;;;11.70;36.12;100464.02;108094;1254;61039;-68
2024/03/13 08:54:41;;;;;;;32.70;16.10;;;;;;;11.76;36.02;100461.71;108121;1254;73678;-67
2024/03/13 08:57:28;;;;;;;33.80;17.10;;;;;;;12.05;34.94;100458.34;108066;1254;72630;-68
2024/03/13 09:00:15;;;;;;;37.70;15.50;;;;;;;12.01;35.68;100456.23;108036;1254;72943;-67
2024/03/13 09:03:01;;;;;;;38.40;17.80;;;;;;;12.05;34.83;100443.23;108015;1254;60399;-67
2024/03/13 09:05:47;;;;;;;39.20;17.60;;;;;;;12.28;35.00;100439.53;108019;1254;62378;-67
2024/03/13 09:08:24;;;;;;;29.70;15.30;;;;;;;12.23;34.55;100438.82;108072;1254;75197;-67
2024/03/13 09:11:12;;;;;;;70.30;26.30;;;;;;;12.09;34.57;100426.52;108152;1255;69211;-69
2024/03/13 09:13:41;;;;;;;43.60;17.10;;;;;;;11.96;34.94;100428.77;108024;1254;74929;-68
2024/03/13 09:16:12;;;;;;;37.30;16.40;;;;;;;12.11;34.38;100432.41;108091;1258;60437;-67
2024/03/13 09:18:41;;;;;;;32.30;15.90;;;;;;;11.96;34.36;100443.91;108066;1259;61075;-68
2024/03/13 09:21:12;;;;;;;31.50;15.90;;;;;;;12.23;33.56;100453.44;108076;1254;72715;-67
2024/03/13 09:23:40;;;;;;;28.60;15.50;;;;;;;12.36;33.25;100457.70;107965;1260;70048;-67
2024/03/13 09:27:57;;;;;;;31.10;14.20;;;;;;;10.04;36.82;100469.04;104815;1290;612684;-67
2024/03/13 09:30:24;;;;;;;32.30;14.90;;;;;;;11.47;34.74;100465.36;107582;1261;59208;-67
2024/03/13 09:32:51;;;;;;;29.70;14.30;;;;;;;11.55;33.86;100463.33;107589;1260;59033;-69
2024/03/13 09:35:18;;;;;;;25.70;15.00;;;;;;;11.77;33.22;100462.38;107598;1262;71011;-68
2024/03/13 09:37:47;;;;;;;30.50;15.40;;;;;;;11.48;33.98;100454.60;107560;1261;70254;-68
2024/03/13 09:40:16;;;;;;;31.30;12.30;;;;;;;11.78;33.87;100458.11;107435;1258;161021;-68
2024/03/13 09:42:46;;;;;;;32.40;15.20;;;;;;;11.67;33.54;100454.46;107713;1258;59464;-67
2024/03/13 09:45:19;;;;;;;28.30;14.50;;;;;;;11.97;33.20;100447.73;107600;1257;61525;-68
2024/03/13 09:47:46;;;;;;;30.40;14.50;;;;;;;12.15;33.06;100450.25;107570;1264;72205;-68
2024/03/13 09:50:15;;;;;;;29.10;14.40;;;;;;;12.54;32.55;100451.36;107798;1258;71867;-67
2024/03/13 09:52:42;;;;;;;28.40;15.10;;;;;;;12.41;32.65;100453.30;107742;1261;71166;-68
2024/03/13 09:55:12;;;;;;;29.10;15.00;;;;;;;12.78;32.24;100455.30;107558;1261;60836;-67
2024/03/13 09:57:39;;;;;;;29.30;14.80;;;;;;;13.06;32.01;100462.25;107604;1260;59681;-68
2024/03/13 10:00:10;;;;;;;33.50;14.60;;;;;;;13.03;31.66;100463.29;107501;1261;73104;-67
2024/03/13 10:02:41;;;;;;;35.00;13.30;;;;;;;13.02;31.57;100465.96;107554;1261;70626;-67
2024/03/13 10:05:11;;;;;;;30.50;13.80;;;;;;;12.85;31.58;100465.60;107608;1261;72693;-67
2024/03/13 10:07:38;;;;;;;27.30;13.50;;;;;;;13.18;31.39;100463.87;107670;1261;60313;-68
2024/03/13 10:10:19;;;;;;;28.00;13.20;;;;;;;13.10;31.28;100458.24;107632;1263;59214;-67
2024/03/13 10:12:46;;;;;;;29.00;14.30;;;;;;;13.12;31.37;100461.66;107627;1261;74194;-68
2024/03/13 10:15:15;;;;;;;33.00;13.40;;;;;;;13.29;31.49;100463.42;107536;1266;70316;-67
2024/03/13 10:17:44;;;;;;;31.00;15.50;;;;;;;13.14;31.36;100458.58;107576;1263;72738;-68
2024/03/13 10:20:13;;;;;;;27.40;13.80;;;;;;;12.91;31.39;100458.31;107612;1263;60804;-68
2024/03/13 10:22:40;;;;;;;27.30;14.10;;;;;;;12.58;31.74;100465.30;107678;1263;59707;-67
2024/03/13 10:25:09;;;;;;;37.40;15.20;;;;;;;12.58;31.85;100458.93;107883;1257;72073;-67
2024/03/13 10:27:38;;;;;;;26.30;13.60;;;;;;;12.70;32.13;100462.14;107823;1256;68964;-68
2024/03/13 10:30:07;;;;;;;27.10;12.50;;;;;;;12.64;31.65;100464.67;107926;1258;72689;-67
2024/03/13 10:32:36;;;;;;;27.80;14.00;;;;;;;12.66;31.98;100461.59;108042;1255;61048;-68
2024/03/13 10:35:04;;;;;;;22.90;12.20;;;;;;;12.43;32.33;100463.42;108133;1255;60250;-67
2024/03/13 10:37:31;;;;;;;25.70;12.50;;;;;;;12.18;32.27;100466.48;108085;1254;73302;-68
2024/03/13 10:39:58;;;;;;;30.40;13.30;;;;;;;12.49;31.96;100456.49;107936;1254;68665;-67
2024/03/13 10:42:25;;;;;;;29.30;14.80;;;;;;;12.34;32.13;100455.31;108020;1254;72710;-68
2024/03/13 10:44:52;;;;;;;28.80;13.20;;;;;;;12.43;32.10;100460.06;107752;1256;59766;-68
2024/03/13 10:47:18;;;;;;;30.90;14.10;;;;;;;12.41;32.18;100458.21;108082;1254;60361;-67
2024/03/13 10:49:46;;;;;;;30.00;14.30;;;;;;;12.50;32.02;100451.16;108023;1254;73182;-68
2024/03/13 10:52:13;;;;;;;27.90;13.30;;;;;;;12.41;32.26;100449.74;108084;1254;69919;-68
2024/03/13 10:54:41;;;;;;;28.80;13.60;;;;;;;12.58;31.94;100447.66;108047;1254;72588;-68
2024/03/13 10:57:13;;;;;;;24.80;12.00;;;;;;;12.73;31.95;100449.73;108042;1254;60689;-68
2024/03/13 10:59:41;;;;;;;30.10;11.90;;;;;;;12.91;31.87;100440.69;107864;1260;59582;-68
2024/03/13 11:02:08;;;;;;;27.10;13.30;;;;;;;12.79;31.57;100441.38;108206;1255;71858;-67
2024/03/13 11:04:35;;;;;;;28.80;12.90;;;;;;;12.82;31.58;100436.84;107960;1255;71477;-68
2024/03/13 11:07:01;;;;;;;36.90;13.20;;;;;;;12.85;31.31;100435.65;107988;1260;72913;-68
2024/03/13 11:09:29;;;;;;;28.10;12.70;;;;;;;12.60;31.28;100438.44;108037;1254;59379;-68
2024/03/13 11:11:56;;;;;;;24.20;11.70;;;;;;;12.31;31.47;100440.84;108250;1254;60363;-67
2024/03/13 11:14:23;;;;;;;26.20;12.40;;;;;;;12.07;31.30;100436.63;108138;1254;73016;-67
2024/03/13 11:16:50;;;;;;;28.40;12.80;;;;;;;12.09;31.64;100438.17;108066;1255;69785;-67
2024/03/13 11:19:17;;;;;;;27.00;13.50;;;;;;;12.07;31.53;100438.04;108336;1254;73712;-67
2024/03/13 11:22:04;;;;;;;25.40;12.70;;;;;;;12.09;31.65;100437.80;108239;1254;59688;-67
2024/03/13 11:24:32;;;;;;;27.40;11.90;;;;;;;12.30;31.38;100439.99;108308;1256;61185;-68
2024/03/13 11:27:17;;;;;;;34.70;13.80;;;;;;;12.42;31.21;100434.94;108350;1254;72993;-67
2024/03/13 11:29:43;;;;;;;40.80;15.40;;;;;;;12.40;31.32;100436.22;108220;1254;70612;-67
2024/03/13 11:32:14;;;;;;;36.00;14.40;;;;;;;12.42;31.29;100432.98;108191;1255;72659;-67
2024/03/13 11:34:41;;;;;;;31.90;14.20;;;;;;;12.37;31.40;100427.02;108074;1254;59515;-67
2024/03/13 11:37:10;;;;;;;27.80;13.50;;;;;;;12.34;31.18;100423.08;108192;1254;60182;-67
2024/03/13 11:39:38;;;;;;;28.30;12.80;;;;;;;12.37;31.03;100416.11;108273;1254;71976;-67
2024/03/13 11:42:12;;;;;;;23.40;11.80;;;;;;;12.43;31.03;100417.63;108225;1254;71810;-68
2024/03/13 11:44:42;;;;;;;27.10;14.90;;;;;;;12.60;30.63;100416.80;108290;1257;72595;-68
2024/03/13 11:47:11;;;;;;;28.50;14.50;;;;;;;12.71;30.61;100416.67;108187;1252;60465;-68
2024/03/13 11:49:40;;;;;;;27.40;13.30;;;;;;;12.46;30.68;100421.91;108172;1254;60199;-68
2024/03/13 11:52:07;;;;;;;28.50;12.90;;;;;;;12.57;30.75;100417.06;108196;1254;71126;-68
2024/03/13 11:54:34;;;;;;;28.70;12.50;;;;;;;12.65;30.46;100415.51;108178;1256;71406;-67
2024/03/13 11:57:12;;;;;;;39.20;16.40;;;;;;;12.90;30.50;100416.77;108051;1254;71459;-69
2024/03/13 11:59:53;;;;;;;35.00;16.30;;;;;;;13.01;30.39;100409.62;108122;1254;59711;-68
2024/03/13 12:02:30;;;;;;;;;;;;;;;12.91;30.38;100405.98;108187;1254;59617;-67
2024/03/13 12:05:06;;;;;;;32.30;14.20;;;;;;;13.16;30.16;100404.73;108151;1257;73070;-68
2024/03/13 12:07:36;;;;;;;41.70;19.10;;;;;;;13.31;29.98;100404.48;108162;1254;69426;-68
2024/03/13 12:10:03;;;;;;;36.50;15.40;;;;;;;13.14;29.73;100400.23;108123;1254;73832;-68
2024/03/13 12:12:31;;;;;;;47.10;16.60;;;;;;;13.21;29.58;100397.98;108130;1254;59671;-68
2024/03/13 12:14:58;;;;;;;46.40;20.20;;;;;;;13.25;29.70;100396.74;108128;1254;60155;-67
2024/03/13 12:17:25;;;;;;;33.20;16.10;;;;;;;13.39;29.49;100395.83;108092;1257;73061;-68
2024/03/13 12:19:52;;;;;;;35.80;15.10;;;;;;;13.43;29.36;100398.30;108165;1254;71561;-67
2024/03/13 12:22:20;;;;;;;25.00;13.30;;;;;;;13.45;29.22;100399.82;108196;1254;72389;-68
2024/03/13 12:24:46;;;;;;;34.80;15.90;;;;;;;13.48;29.21;100398.05;108164;1254;59621;-68
2024/03/13 12:27:13;;;;;;;30.90;14.90;;;;;;;13.05;29.56;100399.56;108045;1254;60382;-67
2024/03/13 12:29:41;;;;;;;31.80;14.80;;;;;;;12.80;30.04;100396.73;108164;1253;72865;-67
2024/03/13 12:32:08;;;;;;;34.40;15.90;;;;;;;12.85;30.17;100395.81;108215;1256;69207;-68
2024/03/13 12:34:36;;;;;;;29.80;14.60;;;;;;;12.81;29.90;100391.96;108127;1251;71676;-67